createdAt,value
2022-08-17T00:00:42.715Z,100649.31
2022-08-17T00:03:10.515Z,100646.56
2022-08-17T00:05:36.812Z,100649.31
2022-08-17T00:08:03.075Z,100641.25
2022-08-17T00:10:29.377Z,100647.97
2022-08-17T00:12:58.647Z,100651.09
2022-08-17T00:15:24.866Z,100650.59
2022-08-17T00:17:51.130Z,100648.06
2022-08-17T00:20:17.538Z,100652.91
2022-08-17T00:22:46.274Z,100655.84
2022-08-17T00:25:12.503Z,100660.25
2022-08-17T00:27:38.772Z,100657.91
2022-08-17T00:30:04.987Z,100659.81
2022-08-17T00:33:15.778Z,100654.50
2022-08-17T00:35:17.547Z,100666.31
2022-08-17T00:37:43.775Z,100665.47
2022-08-17T00:40:10.087Z,100656.38
2022-08-17T00:42:36.438Z,100665.19
2022-08-17T00:45:02.662Z,100663.66
2022-08-17T00:47:28.907Z,100658.06
2022-08-17T00:49:55.257Z,100656.53
2022-08-17T00:52:21.545Z,100659.63
2022-08-17T00:54:47.812Z,100666.72
2022-08-17T00:57:14.102Z,100660.25
2022-08-17T00:59:40.346Z,100665.81
2022-08-17T01:02:06.602Z,100654.88
2022-08-17T01:04:32.835Z,100663.00
2022-08-17T01:06:59.063Z,100658.91
2022-08-17T01:09:25.308Z,100658.41
2022-08-17T01:11:51.578Z,100662.56
2022-08-17T01:14:17.916Z,100672.03
2022-08-17T01:16:44.180Z,100668.59
2022-08-17T01:19:10.497Z,100670.69
2022-08-17T01:21:36.751Z,100663.28
2022-08-17T01:24:02.955Z,100667.06
2022-08-17T01:26:29.255Z,100670.00
2022-08-17T01:28:56.003Z,100670.69
2022-08-17T01:31:22.305Z,100669.47
2022-08-17T01:33:48.574Z,100673.06
2022-08-17T01:36:14.881Z,100675.81
2022-08-17T01:38:41.159Z,100677.84
2022-08-17T01:41:07.389Z,100684.22
2022-08-17T01:43:33.640Z,100681.66
2022-08-17T01:46:03.138Z,100683.06
2022-08-17T01:48:30.221Z,100681.88
2022-08-17T01:50:56.452Z,100681.22
2022-08-17T01:53:22.713Z,100686.88
2022-08-17T01:55:48.953Z,100693.22
2022-08-17T01:58:15.203Z,100698.91
2022-08-17T02:00:59.714Z,100686.88
2022-08-17T02:03:27.653Z,100683.97
2022-08-17T02:05:53.908Z,100687.75
2022-08-17T02:08:20.420Z,100683.47
2022-08-17T02:10:58.798Z,100680.06
2022-08-17T02:13:27.281Z,100685.72
2022-08-17T02:15:53.534Z,100681.44
2022-08-17T02:18:19.784Z,100685.56
2022-08-17T02:20:46.123Z,100685.06
2022-08-17T02:23:12.374Z,100683.56
2022-08-17T02:25:38.594Z,100686.59
2022-08-17T02:28:04.859Z,100688.69
2022-08-17T02:31:00.938Z,100697.94
2022-08-17T02:33:17.399Z,100690.59
2022-08-17T02:35:46.558Z,100680.47
2022-08-17T02:38:12.802Z,100671.56
2022-08-17T02:40:39.058Z,100678.25
2022-08-17T02:43:05.325Z,100671.91
2022-08-17T02:45:31.647Z,100677.38
2022-08-17T02:47:57.917Z,100672.06
2022-08-17T02:50:24.131Z,100674.16
2022-08-17T02:53:01.828Z,100688.22
2022-08-17T02:55:28.867Z,100677.09
2022-08-17T02:57:55.113Z,100683.31
2022-08-17T03:00:21.347Z,100688.28
2022-08-17T03:02:47.591Z,100691.56
2022-08-17T03:05:13.818Z,100691.06
2022-08-17T03:07:40.055Z,100685.06
2022-08-17T03:10:06.297Z,100691.56
2022-08-17T03:12:32.557Z,100679.06
2022-08-17T03:14:58.780Z,100677.38
2022-08-17T03:17:25.134Z,100671.91
2022-08-17T03:19:51.441Z,100671.91
2022-08-17T03:22:36.187Z,100679.94
2022-08-17T03:25:03.996Z,100676.31
2022-08-17T03:27:36.775Z,100679.94
2022-08-17T03:30:05.734Z,100685.59
2022-08-17T03:32:31.968Z,100670.00
2022-08-17T03:34:58.208Z,100674.63
2022-08-17T03:37:24.511Z,100676.50
2022-08-17T03:39:50.801Z,100674.81
2022-08-17T03:42:32.331Z,100675.66
2022-08-17T03:44:59.101Z,100674.13
2022-08-17T03:47:25.505Z,100682.03
2022-08-17T03:49:51.726Z,100684.78
2022-08-17T03:52:17.987Z,100682.53
2022-08-17T03:54:44.218Z,100677.59
2022-08-17T03:57:10.486Z,100683.94
2022-08-17T03:59:36.725Z,100684.78
2022-08-17T04:02:02.967Z,100679.28
2022-08-17T04:04:29.195Z,100688.19
2022-08-17T04:06:55.429Z,100683.75
2022-08-17T04:09:21.640Z,100685.44
2022-08-17T04:11:47.955Z,100688.00
2022-08-17T04:14:14.314Z,100685.13
2022-08-17T04:16:40.566Z,100691.81
2022-08-17T04:19:06.787Z,100697.47
2022-08-17T04:21:33.232Z,100707.19
2022-08-17T04:23:59.461Z,100699.50
2022-08-17T04:26:52.526Z,100701.88
2022-08-17T04:29:12.060Z,100693.31
2022-08-17T04:31:38.312Z,100706.47
2022-08-17T04:34:04.549Z,100698.94
2022-08-17T04:36:30.925Z,100697.94
2022-08-17T04:38:58.329Z,100707.00
2022-08-17T04:41:24.648Z,100705.09
2022-08-17T04:43:50.895Z,100712.28
2022-08-17T04:46:17.183Z,100722.91
2022-08-17T04:48:43.552Z,100712.63
2022-08-17T04:51:10.283Z,100711.59
2022-08-17T04:53:36.715Z,100709.53
2022-08-17T04:56:03.031Z,100715.69
2022-08-17T04:58:29.274Z,100703.53
2022-08-17T05:00:55.591Z,100712.25
2022-08-17T05:03:21.835Z,100711.03
2022-08-17T05:05:48.100Z,100718.91
2022-08-17T05:08:14.714Z,100712.03
2022-08-17T05:10:45.534Z,100714.44
2022-08-17T05:13:12.071Z,100713.91
2022-08-17T05:15:38.326Z,100721.59
2022-08-17T05:18:11.246Z,100722.06
2022-08-17T05:20:37.700Z,100728.94
2022-08-17T05:23:03.951Z,100728.59
2022-08-17T05:25:30.517Z,100731.66
2022-08-17T05:28:00.683Z,100721.22
2022-08-17T05:30:28.469Z,100738.84
2022-08-17T05:32:55.249Z,100728.34
2022-08-17T05:35:21.692Z,100738.59
2022-08-17T05:37:48.119Z,100735.63
2022-08-17T05:40:14.436Z,100740.25
2022-08-17T05:42:41.036Z,100748.22
2022-08-17T05:45:07.346Z,100750.06
2022-08-17T05:47:33.814Z,100748.31
2022-08-17T05:50:00.332Z,100744.16
2022-08-17T05:52:28.622Z,100747.19
2022-08-17T05:54:55.052Z,100748.53
2022-08-17T05:57:22.218Z,100747.00
2022-08-17T05:59:49.265Z,100745.59
2022-08-17T06:02:15.594Z,100752.25
2022-08-17T06:04:41.931Z,100742.22
2022-08-17T06:07:08.292Z,100753.31
2022-08-17T06:09:34.574Z,100742.44
2022-08-17T06:12:00.936Z,100746.34
2022-08-17T06:14:28.763Z,100743.91
2022-08-17T06:16:55.114Z,100741.94
2022-08-17T06:19:21.417Z,100748.38
2022-08-17T06:21:47.881Z,100753.97
2022-08-17T06:24:14.221Z,100752.16
2022-08-17T06:26:43.282Z,100751.25
2022-08-17T06:29:09.794Z,100759.78
2022-08-17T06:31:45.273Z,100745.50
2022-08-17T06:34:11.480Z,100751.47
2022-08-17T06:36:37.731Z,100747.28
2022-08-17T06:39:03.979Z,100746.91
2022-08-17T06:41:30.248Z,100741.50
2022-08-17T06:43:56.531Z,100753.25
2022-08-17T06:46:22.818Z,100752.28
2022-08-17T06:48:49.044Z,100749.25
2022-08-17T06:51:15.368Z,100756.38
2022-08-17T06:53:41.671Z,100758.78
2022-08-17T06:56:07.951Z,100748.50
2022-08-17T06:58:34.172Z,100751.47
2022-08-17T07:01:00.450Z,100749.88
2022-08-17T07:03:26.713Z,100750.44
2022-08-17T07:05:52.966Z,100755.78
2022-08-17T07:08:20.654Z,100751.19
2022-08-17T07:10:46.908Z,100752.13
2022-08-17T07:13:13.131Z,100755.97
2022-08-17T07:15:39.651Z,100750.13
2022-08-17T07:18:05.872Z,100751.91
2022-08-17T07:20:32.384Z,100750.78
2022-08-17T07:23:00.433Z,100751.28
2022-08-17T07:25:26.968Z,100752.41
2022-08-17T07:27:53.196Z,100747.19
2022-08-17T07:30:19.648Z,100750.03
2022-08-17T07:32:46.069Z,100752.25
2022-08-17T07:35:12.524Z,100755.06
2022-08-17T07:37:41.749Z,100756.81
2022-08-17T07:40:15.442Z,100755.38
2022-08-17T07:42:46.720Z,100758.81
2022-08-17T07:45:13.321Z,100757.16
2022-08-17T07:47:39.567Z,100759.28
2022-08-17T07:50:05.854Z,100762.31
2022-08-17T07:52:51.185Z,100762.28
2022-08-17T07:55:18.286Z,100759.13
2022-08-17T07:57:44.615Z,100768.50
2022-08-17T08:00:16.411Z,100763.19
2022-08-17T08:02:42.849Z,100762.97
2022-08-17T08:05:09.142Z,100760.84
2022-08-17T08:07:36.413Z,100756.38
2022-08-17T08:10:02.731Z,100761.72
2022-08-17T08:12:33.673Z,100755.53
2022-08-17T08:15:00.201Z,100762.34
2022-08-17T08:17:26.463Z,100758.09
2022-08-17T08:19:52.751Z,100764.06
2022-08-17T08:22:19.101Z,100766.81
2022-08-17T08:24:45.439Z,100765.75
2022-08-17T08:27:11.657Z,100776.16
2022-08-17T08:29:37.921Z,100776.59
2022-08-17T08:32:04.158Z,100774.00
2022-08-17T08:34:58.708Z,100767.81
2022-08-17T08:37:24.970Z,100774.19
2022-08-17T08:39:53.995Z,100767.97
2022-08-17T08:42:20.474Z,100761.78
2022-08-17T08:45:01.278Z,100768.91
2022-08-17T08:47:31.489Z,100758.69
2022-08-17T08:50:04.402Z,100762.47
2022-08-17T08:52:31.201Z,100758.81
2022-08-17T08:54:57.519Z,100766.47
2022-08-17T08:57:28.017Z,100760.88
2022-08-17T08:59:58.399Z,100752.97
2022-08-17T09:02:24.804Z,100752.09
2022-08-17T09:05:13.440Z,100747.78
2022-08-17T09:07:37.427Z,100752.69
2022-08-17T09:10:03.732Z,100758.16
2022-08-17T09:12:30.025Z,100755.81
2022-08-17T09:14:56.305Z,100763.84
2022-08-17T09:17:22.543Z,100752.31
2022-08-17T09:19:48.792Z,100752.94
2022-08-17T09:22:15.021Z,100751.56
2022-08-17T09:24:41.274Z,100748.97
2022-08-17T09:27:07.557Z,100754.28
2022-08-17T09:29:33.804Z,100751.69
2022-08-17T09:32:00.129Z,100744.16
2022-08-17T09:34:29.601Z,100750.28
2022-08-17T09:36:59.555Z,100751.91
2022-08-17T09:39:26.256Z,100750.38
2022-08-17T09:41:52.732Z,100748.84
2022-08-17T09:44:23.079Z,100750.44
2022-08-17T09:46:50.075Z,100749.78
2022-08-17T09:49:16.382Z,100756.13
2022-08-17T09:51:42.651Z,100763.28
2022-08-17T09:54:37.097Z,100760.56
2022-08-17T09:57:18.166Z,100751.97
2022-08-17T09:59:41.876Z,100744.31
2022-08-17T10:02:08.219Z,100745.75
2022-08-17T10:04:39.492Z,100749.69
2022-08-17T10:07:05.762Z,100744.41
2022-08-17T10:09:32.021Z,100747.47
2022-08-17T10:11:58.861Z,100737.16
2022-08-17T10:14:37.640Z,100737.19
2022-08-17T10:17:10.085Z,100732.97
2022-08-17T10:19:36.394Z,100728.03
2022-08-17T10:22:32.791Z,100737.94
2022-08-17T10:25:01.950Z,100739.06
2022-08-17T10:27:35.144Z,100733.72
2022-08-17T10:30:01.488Z,100739.16
2022-08-17T10:32:28.433Z,100747.63
2022-08-17T10:34:54.851Z,100743.03
2022-08-17T10:37:21.193Z,100731.66
2022-08-17T10:39:52.139Z,100738.78
2022-08-17T10:42:30.406Z,100732.53
2022-08-17T10:44:59.228Z,100734.09
2022-08-17T10:47:25.674Z,100732.03
2022-08-17T10:49:51.960Z,100732.63
2022-08-17T10:52:18.254Z,100729.84
2022-08-17T10:54:44.475Z,100735.19
2022-08-17T10:57:10.959Z,100736.06
2022-08-17T10:59:37.185Z,100734.75
2022-08-17T11:02:03.435Z,100729.28
2022-08-17T11:04:29.839Z,100735.56
2022-08-17T11:06:56.188Z,100725.41
2022-08-17T11:09:22.443Z,100732.31
2022-08-17T11:11:48.706Z,100721.91
2022-08-17T11:14:14.969Z,100723.31
2022-08-17T11:16:41.200Z,100727.34
2022-08-17T11:19:07.443Z,100722.25
2022-08-17T11:21:33.669Z,100721.63
2022-08-17T11:23:59.902Z,100712.81
2022-08-17T11:26:26.207Z,100703.97
2022-08-17T11:28:53.040Z,100714.97
2022-08-17T11:31:19.448Z,100707.19
2022-08-17T11:34:04.317Z,100707.44
2022-08-17T11:36:30.549Z,100702.94
2022-08-17T11:38:56.810Z,100705.41
2022-08-17T11:41:23.604Z,100707.56
2022-08-17T11:43:49.890Z,100697.63
2022-08-17T11:46:16.252Z,100704.72
2022-08-17T11:48:42.475Z,100696.72
2022-08-17T11:51:08.693Z,100698.03
2022-08-17T11:53:35.012Z,100690.34
2022-08-17T11:56:01.320Z,100685.19
2022-08-17T11:58:27.561Z,100688.16
2022-08-17T12:00:53.784Z,100696.97
2022-08-17T12:03:20.054Z,100689.69
2022-08-17T12:05:46.449Z,100686.22
2022-08-17T12:08:12.781Z,100688.84
2022-08-17T12:10:38.990Z,100681.41
2022-08-17T12:13:05.233Z,100680.22
2022-08-17T12:15:31.453Z,100681.50
2022-08-17T12:17:58.150Z,100683.88
2022-08-17T12:20:24.537Z,100685.72
2022-08-17T12:22:50.859Z,100686.25
2022-08-17T12:25:17.255Z,100685.63
2022-08-17T12:28:04.239Z,100685.06
2022-08-17T12:30:29.751Z,100693.16
2022-08-17T12:32:56.169Z,100690.38
2022-08-17T12:35:22.513Z,100693.47
2022-08-17T12:37:48.827Z,100692.50
2022-08-17T12:40:15.147Z,100694.53
2022-08-17T12:42:41.562Z,100688.44
2022-08-17T12:45:07.812Z,100686.16
2022-08-17T12:47:34.045Z,100686.81
2022-08-17T12:50:03.186Z,100682.50
2022-08-17T12:52:29.454Z,100680.72
2022-08-17T12:54:55.710Z,100676.41
2022-08-17T12:57:21.954Z,100679.09
2022-08-17T12:59:48.199Z,100676.56
2022-08-17T13:02:15.011Z,100668.47
2022-08-17T13:04:41.254Z,100653.84
2022-08-17T13:07:07.516Z,100653.25
2022-08-17T13:09:40.472Z,100653.06
2022-08-17T13:12:07.502Z,100655.28
2022-08-17T13:14:34.238Z,100644.69
2022-08-17T13:17:00.575Z,100647.34
2022-08-17T13:19:39.829Z,100651.13
2022-08-17T13:22:07.610Z,100658.56
2022-08-17T13:24:38.282Z,100663.84
2022-08-17T13:27:07.976Z,100654.63
2022-08-17T13:29:34.724Z,100665.19
2022-08-17T13:32:04.224Z,100651.84
2022-08-17T13:34:31.334Z,100653.28
2022-08-17T13:36:59.557Z,100660.66
2022-08-17T13:39:26.137Z,100660.31
2022-08-17T13:41:52.551Z,100663.81
2022-08-17T13:44:18.780Z,100658.34
2022-08-17T13:46:45.139Z,100652.69
2022-08-17T13:49:18.642Z,100646.63
2022-08-17T13:51:44.980Z,100653.91
2022-08-17T13:54:11.323Z,100653.81
2022-08-17T13:56:39.569Z,100650.66
2022-08-17T13:59:06.056Z,100643.25
2022-08-17T14:01:32.432Z,100644.53
2022-08-17T14:03:58.751Z,100644.16
2022-08-17T14:06:52.042Z,100650.63
2022-08-17T14:09:11.281Z,100642.03
2022-08-17T14:11:37.531Z,100639.06
2022-08-17T14:14:03.800Z,100650.88
2022-08-17T14:16:30.107Z,100631.91
2022-08-17T14:18:57.486Z,100642.47
2022-08-17T14:21:23.783Z,100634.50
2022-08-17T14:23:54.381Z,100633.22
2022-08-17T14:26:21.334Z,100635.13
2022-08-17T14:28:49.457Z,100639.69
2022-08-17T14:31:22.906Z,100633.84
2022-08-17T14:33:49.178Z,100637.50
2022-08-17T14:36:15.472Z,100637.50
2022-08-17T14:38:41.724Z,100625.66
2022-08-17T14:41:08.126Z,100626.94
2022-08-17T14:43:34.403Z,100632.94
2022-08-17T14:46:00.684Z,100635.06
2022-08-17T14:48:26.956Z,100630.19
2022-08-17T14:50:53.249Z,100626.19
2022-08-17T14:53:19.619Z,100634.50
2022-08-17T14:55:47.119Z,100621.59
2022-08-17T14:58:14.943Z,100627.44
2022-08-17T15:00:41.173Z,100632.97
2022-08-17T15:03:07.411Z,100625.03
2022-08-17T15:05:33.712Z,100630.81
2022-08-17T15:08:00.285Z,100624.03
2022-08-17T15:10:26.572Z,100630.19
2022-08-17T15:12:52.841Z,100627.25
2022-08-17T15:15:19.167Z,100620.56
2022-08-17T15:17:46.128Z,100623.53
2022-08-17T15:20:21.117Z,100633.22
2022-08-17T15:22:47.372Z,100623.91
2022-08-17T15:25:13.606Z,100625.34
2022-08-17T15:27:39.871Z,100617.84
2022-08-17T15:30:07.325Z,100612.09
2022-08-17T15:32:33.780Z,100617.78
2022-08-17T15:35:00.114Z,100620.03
2022-08-17T15:37:26.384Z,100619.25
2022-08-17T15:39:52.688Z,100617.81
2022-08-17T15:42:18.960Z,100614.19
2022-08-17T15:44:45.167Z,100616.28
2022-08-17T15:47:11.417Z,100614.50
2022-08-17T15:49:38.715Z,100608.81
2022-08-17T15:52:04.942Z,100596.72
2022-08-17T15:54:31.655Z,100601.06
2022-08-17T15:57:01.019Z,100600.91
2022-08-17T15:59:27.238Z,100596.44
2022-08-17T16:03:15.105Z,100595.31
2022-08-17T16:04:41.441Z,100597.63
2022-08-17T16:07:10.478Z,100594.88
2022-08-17T16:09:36.739Z,100592.41
2022-08-17T16:12:02.993Z,100597.41
2022-08-17T16:14:34.008Z,100587.84
2022-08-17T16:17:01.450Z,100596.69
2022-08-17T16:19:27.776Z,100587.06
2022-08-17T16:21:54.023Z,100589.78
2022-08-17T16:24:20.335Z,100594.63
2022-08-17T16:26:46.625Z,100606.22
2022-08-17T16:29:12.845Z,100605.91
2022-08-17T16:31:39.171Z,100598.38
2022-08-17T16:34:16.776Z,100597.16
2022-08-17T16:36:54.658Z,100588.63
2022-08-17T16:39:22.078Z,100584.47
2022-08-17T16:41:48.645Z,100573.28
2022-08-17T16:44:15.496Z,100587.47
2022-08-17T16:46:45.983Z,100582.34
2022-08-17T16:49:12.410Z,100591.03
2022-08-17T16:51:55.866Z,100596.13
2022-08-17T16:54:22.121Z,100583.72
2022-08-17T16:56:48.363Z,100583.09
2022-08-17T16:59:30.229Z,100586.03
2022-08-17T17:01:58.040Z,100584.56
2022-08-17T17:04:24.390Z,100582.28
2022-08-17T17:06:50.758Z,100580.31
2022-08-17T17:09:16.961Z,100575.84
2022-08-17T17:11:43.230Z,100576.69
2022-08-17T17:14:09.482Z,100581.16
2022-08-17T17:16:35.840Z,100575.00
2022-08-17T17:19:02.127Z,100578.50
2022-08-17T17:21:28.561Z,100582.34
2022-08-17T17:23:54.785Z,100585.31
2022-08-17T17:26:21.076Z,100583.56
2022-08-17T17:28:47.306Z,100588.22
2022-08-17T17:31:13.549Z,100589.31
2022-08-17T17:33:39.777Z,100581.97
2022-08-17T17:36:06.079Z,100581.03
2022-08-17T17:38:32.307Z,100586.78
2022-08-17T17:41:02.496Z,100583.00
2022-08-17T17:43:39.022Z,100582.25
2022-08-17T17:46:28.693Z,100576.25
2022-08-17T17:48:52.965Z,100578.75
2022-08-17T17:52:05.285Z,100582.47
2022-08-17T17:54:05.470Z,100573.84
2022-08-17T17:56:44.157Z,100575.84
2022-08-17T17:59:12.614Z,100574.22
2022-08-17T18:01:39.334Z,100574.75
2022-08-17T18:04:17.017Z,100573.09
2022-08-17T18:06:47.049Z,100585.13
2022-08-17T18:09:15.477Z,100587.06
2022-08-17T18:11:45.749Z,100586.84
2022-08-17T18:14:17.565Z,100597.75
2022-08-17T18:16:43.919Z,100588.91
2022-08-17T18:19:11.497Z,100582.25
2022-08-17T18:21:39.119Z,100587.84
2022-08-17T18:24:06.578Z,100593.03
2022-08-17T18:26:34.443Z,100580.66
2022-08-17T18:29:00.980Z,100588.16
2022-08-17T18:31:27.377Z,100587.03
2022-08-17T18:33:53.607Z,100588.97
2022-08-17T18:36:19.881Z,100585.63
2022-08-17T18:38:46.595Z,100592.59
2022-08-17T18:41:13.028Z,100601.25
2022-08-17T18:43:52.770Z,100595.19
2022-08-17T18:46:28.298Z,100608.56
2022-08-17T18:48:55.972Z,100607.09
2022-08-17T18:51:39.701Z,100611.03
2022-08-17T18:54:08.044Z,100602.78
2022-08-17T18:56:34.539Z,100603.09
2022-08-17T18:59:00.811Z,100598.47
2022-08-17T19:01:41.941Z,100606.66
2022-08-17T19:04:13.600Z,100608.41
2022-08-17T19:06:39.920Z,100610.19
2022-08-17T19:09:06.356Z,100608.72
2022-08-17T19:11:32.611Z,100608.94
2022-08-17T19:13:58.918Z,100610.47
2022-08-17T19:16:25.162Z,100602.38
2022-08-17T19:18:51.435Z,100614.19
2022-08-17T19:21:18.067Z,100614.66
2022-08-17T19:23:53.706Z,100611.94
2022-08-17T19:26:55.381Z,100604.13
2022-08-17T19:29:06.872Z,100598.72
2022-08-17T19:31:33.151Z,100603.28
2022-08-17T19:33:59.484Z,100595.69
2022-08-17T19:36:25.848Z,100607.91
2022-08-17T19:38:52.101Z,100606.72
2022-08-17T19:41:18.374Z,100600.38
2022-08-17T19:43:44.863Z,100598.50
2022-08-17T19:46:11.173Z,100597.09
2022-08-17T19:48:37.403Z,100603.50
2022-08-17T19:51:03.658Z,100604.81
2022-08-17T19:53:42.000Z,100595.94
2022-08-17T19:56:16.189Z,100599.16
2022-08-17T19:58:42.424Z,100595.97
2022-08-17T20:01:11.074Z,100591.13
2022-08-17T20:03:37.385Z,100594.78
2022-08-17T20:06:18.832Z,100593.28
2022-08-17T20:08:45.153Z,100594.63
2022-08-17T20:11:11.410Z,100597.19
2022-08-17T20:13:37.762Z,100601.44
2022-08-17T20:16:04.018Z,100596.56
2022-08-17T20:18:30.259Z,100587.84
2022-08-17T20:20:56.586Z,100595.72
2022-08-17T20:23:22.815Z,100587.00
2022-08-17T20:25:49.088Z,100589.38
2022-08-17T20:28:15.300Z,100595.56
2022-08-17T20:30:42.315Z,100588.53
2022-08-17T20:33:08.525Z,100590.66
2022-08-17T20:35:39.435Z,100590.47
2022-08-17T20:38:05.631Z,100585.59
2022-08-17T20:40:31.887Z,100584.31
2022-08-17T20:42:58.107Z,100585.59
2022-08-17T20:45:24.449Z,100584.97
2022-08-17T20:48:15.994Z,100585.59
2022-08-17T20:50:36.967Z,100587.97
2022-08-17T20:53:03.213Z,100587.97
2022-08-17T20:55:29.457Z,100580.94
2022-08-17T20:57:55.683Z,100588.84
2022-08-17T21:00:21.911Z,100593.09
2022-08-17T21:02:48.140Z,100586.69
2022-08-17T21:05:14.397Z,100590.09
2022-08-17T21:07:42.710Z,100586.94
2022-08-17T21:10:09.998Z,100592.69
2022-08-17T21:12:36.392Z,100593.94
2022-08-17T21:15:02.657Z,100596.06
2022-08-17T21:17:28.957Z,100593.69
2022-08-17T21:20:10.447Z,100605.59
2022-08-17T21:22:37.507Z,100599.22
2022-08-17T21:25:03.777Z,100601.56
2022-08-17T21:27:30.067Z,100599.00
2022-08-17T21:29:56.516Z,100601.34
2022-08-17T21:32:24.423Z,100604.53
2022-08-17T21:34:51.604Z,100604.94
2022-08-17T21:37:17.871Z,100604.31
2022-08-17T21:39:44.137Z,100602.59
2022-08-17T21:42:10.411Z,100610.88
2022-08-17T21:44:36.713Z,100603.88
2022-08-17T21:47:02.979Z,100602.19
2022-08-17T21:49:29.221Z,100606.00
2022-08-17T21:52:04.004Z,100604.50
2022-08-17T21:54:30.263Z,100603.88
2022-08-17T21:56:56.554Z,100611.50
2022-08-17T21:59:22.920Z,100605.56
2022-08-17T22:01:50.707Z,100611.50
2022-08-17T22:04:17.017Z,100612.56
2022-08-17T22:06:43.305Z,100613.00
2022-08-17T22:09:23.726Z,100615.50
2022-08-17T22:11:49.979Z,100615.09
2022-08-17T22:14:16.239Z,100616.56
2022-08-17T22:16:43.748Z,100620.38
2022-08-17T22:19:10.020Z,100622.31
2022-08-17T22:21:36.255Z,100627.34
2022-08-17T22:24:02.499Z,100622.22
2022-08-17T22:26:28.724Z,100628.81
2022-08-17T22:28:54.960Z,100621.81
2022-08-17T22:31:21.215Z,100623.69
2022-08-17T22:33:47.579Z,100629.63
2022-08-17T22:36:13.808Z,100625.16
2022-08-17T22:38:40.587Z,100622.63
2022-08-17T22:41:06.925Z,100616.06
2022-08-17T22:43:34.976Z,100620.72
2022-08-17T22:46:01.306Z,100620.28
2022-08-17T22:48:27.708Z,100620.50
2022-08-17T22:50:54.071Z,100620.91
2022-08-17T22:53:20.319Z,100633.41
2022-08-17T22:55:46.602Z,100634.88
2022-08-17T22:58:12.854Z,100626.16
2022-08-17T23:00:39.121Z,100634.88
2022-08-17T23:03:05.413Z,100630.59
2022-08-17T23:05:31.717Z,100628.25
2022-08-17T23:07:57.957Z,100624.84
2022-08-17T23:10:24.209Z,100619.53
2022-08-17T23:12:50.447Z,100625.47
2022-08-17T23:15:16.670Z,100623.94
2022-08-17T23:17:42.890Z,100625.19
2022-08-17T23:20:11.575Z,100629.03
2022-08-17T23:22:37.781Z,100626.69
2022-08-17T23:25:18.891Z,100628.59
2022-08-17T23:27:46.854Z,100620.50
2022-08-17T23:30:13.158Z,100624.72
2022-08-17T23:32:39.396Z,100619.63
2022-08-17T23:35:19.735Z,100618.31
2022-08-17T23:38:05.634Z,100627.00
2022-08-17T23:40:31.918Z,100618.28
2022-08-17T23:42:58.220Z,100617.59
2022-08-17T23:45:24.882Z,100615.06
2022-08-17T23:47:51.423Z,100614.78
2022-08-17T23:50:17.879Z,100613.97
2022-08-17T23:52:44.821Z,100611.41
2022-08-17T23:55:11.082Z,100605.25
2022-08-17T23:57:37.309Z,100609.47
